Peetz, Colorado
Current Conditions -  °F | °C
As of 8:53 PM on Thursday 18 Dec 2014 (Local Time) from KSNY Reporting Station
Clear Clear  
Wind Chill: 17°   Ceiling: Unl
Heat Index: 26°   Visibility: 10mi
Dew Point: 19°   Wind: 9mph
Humidity: 75%   Direction: 280°W
Pressure: 30.09"   Gusts: NA
Location:  40.96°N, 103.11°W
Report Text: KSNY 190353Z AUTO 28008KT 10SM CLR M03/M07 A3009 RMK AO2 SLP234 T10331072
Loading
Personal Weather Stations






























Interactive Weather Map New forecast layout! Learn more

10-Day Weather Forecast

Advertisements
Track Severe Weather on mobile